createdAt,value
2019-01-29T00:01:23.130Z,1.90
2019-01-29T00:03:57.991Z,2.30
2019-01-29T00:06:33.015Z,2.17
2019-01-29T00:09:12.172Z,2.30
2019-01-29T00:11:46.993Z,2.10
2019-01-29T00:14:21.858Z,3.10
2019-01-29T00:16:56.695Z,2.43
2019-01-29T00:19:31.508Z,2.70
2019-01-29T00:22:06.881Z,2.57
2019-01-29T00:24:41.783Z,2.67
2019-01-29T00:27:16.584Z,2.57
2019-01-29T00:29:51.443Z,2.27
2019-01-29T00:32:28.276Z,2.60
2019-01-29T00:35:03.195Z,2.57
2019-01-29T00:37:38.047Z,2.77
2019-01-29T00:40:14.947Z,2.93
2019-01-29T00:42:50.868Z,2.50
2019-01-29T00:45:25.737Z,3.10
2019-01-29T00:48:00.641Z,2.70
2019-01-29T00:50:35.454Z,3.10
2019-01-29T00:53:10.347Z,3.00
2019-01-29T00:55:45.130Z,3.03
2019-01-29T00:58:20.002Z,3.10
2019-01-29T01:00:54.774Z,3.83
2019-01-29T01:03:29.539Z,3.20
2019-01-29T01:06:04.571Z,3.40
2019-01-29T01:08:40.537Z,3.20
2019-01-29T01:11:15.368Z,2.47
2019-01-29T01:13:50.211Z,3.20
2019-01-29T01:16:24.973Z,3.33
2019-01-29T01:18:59.740Z,3.13
2019-01-29T01:21:34.576Z,3.03
2019-01-29T01:24:09.571Z,2.53
2019-01-29T01:26:44.355Z,2.83
2019-01-29T01:29:19.347Z,3.60
2019-01-29T01:31:54.253Z,2.90
2019-01-29T01:34:29.113Z,2.30
2019-01-29T01:37:03.950Z,2.63
2019-01-29T01:39:38.823Z,3.30
2019-01-29T01:42:13.658Z,3.03
2019-01-29T01:44:48.513Z,4.00
2019-01-29T01:47:25.494Z,4.00
2019-01-29T01:50:00.310Z,4.93
2019-01-29T01:52:35.177Z,2.90
2019-01-29T01:55:13.490Z,2.80
2019-01-29T01:57:48.354Z,4.00
2019-01-29T02:00:23.996Z,2.80
2019-01-29T02:02:58.794Z,3.03
2019-01-29T02:05:33.853Z,3.87
2019-01-29T02:08:08.750Z,3.43
2019-01-29T02:10:43.590Z,3.00
2019-01-29T02:13:18.305Z,3.60
2019-01-29T02:15:53.134Z,3.10
2019-01-29T02:18:27.853Z,3.00
2019-01-29T02:21:02.681Z,3.10
2019-01-29T02:23:38.305Z,2.47
2019-01-29T02:26:13.157Z,2.90
2019-01-29T02:28:47.964Z,2.43
2019-01-29T02:31:25.442Z,2.70
2019-01-29T02:34:02.871Z,2.33
2019-01-29T02:36:37.682Z,2.37
2019-01-29T02:39:12.488Z,2.30
2019-01-29T02:41:47.364Z,2.07
2019-01-29T02:44:22.246Z,1.50
2019-01-29T02:46:57.051Z,2.20
2019-01-29T02:49:31.895Z,2.13
2019-01-29T02:52:09.140Z,1.97
2019-01-29T02:54:46.385Z,2.43
2019-01-29T02:57:21.684Z,1.70
2019-01-29T02:59:56.607Z,2.07
2019-01-29T03:02:31.531Z,2.23
2019-01-29T03:05:08.002Z,1.77
2019-01-29T03:07:43.970Z,1.97
2019-01-29T03:10:26.296Z,1.93
2019-01-29T03:13:01.228Z,2.07
2019-01-29T03:15:35.980Z,2.23
2019-01-29T03:18:10.800Z,1.50
2019-01-29T03:20:45.484Z,2.57
2019-01-29T03:23:27.362Z,2.13
2019-01-29T03:25:56.752Z,2.10
2019-01-29T03:28:31.772Z,2.27
2019-01-29T03:31:06.581Z,1.83
2019-01-29T03:33:41.408Z,2.03
2019-01-29T03:36:16.328Z,2.10
2019-01-29T03:38:51.182Z,2.37
2019-01-29T03:41:26.874Z,2.03
2019-01-29T03:44:01.768Z,1.43
2019-01-29T03:46:36.551Z,2.30
2019-01-29T03:49:11.369Z,2.10
2019-01-29T03:51:46.303Z,2.50
2019-01-29T03:54:21.244Z,1.93
2019-01-29T03:56:56.042Z,1.73
2019-01-29T03:59:30.868Z,1.03
2019-01-29T04:02:07.085Z,1.83
2019-01-29T04:04:41.931Z,1.40
2019-01-29T04:07:16.731Z,2.20
2019-01-29T04:09:51.555Z,1.90
2019-01-29T04:12:26.560Z,2.13
2019-01-29T04:15:04.860Z,1.70
2019-01-29T04:17:41.015Z,2.00
2019-01-29T04:20:20.506Z,1.47
2019-01-29T04:22:59.950Z,1.90
2019-01-29T04:25:38.000Z,2.60
2019-01-29T04:28:15.251Z,2.20
2019-01-29T04:30:51.884Z,1.97
2019-01-29T04:33:26.892Z,2.57
2019-01-29T04:36:03.681Z,2.43
2019-01-29T04:38:38.500Z,1.67
2019-01-29T04:41:13.340Z,2.17
2019-01-29T04:43:48.021Z,1.83
2019-01-29T04:46:22.863Z,2.50
2019-01-29T04:48:57.931Z,2.90
2019-01-29T04:51:32.751Z,2.10
2019-01-29T04:54:07.499Z,2.20
2019-01-29T04:56:42.322Z,2.90
2019-01-29T04:59:17.035Z,1.83
2019-01-29T05:01:51.953Z,2.47
2019-01-29T05:04:26.663Z,2.33
2019-01-29T05:07:03.487Z,2.03
2019-01-29T05:09:38.202Z,1.87
2019-01-29T05:12:13.017Z,2.03
2019-01-29T05:14:47.810Z,2.80
2019-01-29T05:17:22.689Z,2.10
2019-01-29T05:19:57.376Z,2.23
2019-01-29T05:22:32.292Z,2.00
2019-01-29T05:25:10.422Z,2.00
2019-01-29T05:27:45.437Z,2.50
2019-01-29T05:30:24.049Z,2.50
2019-01-29T05:32:58.990Z,2.30
2019-01-29T05:35:33.918Z,2.30
2019-01-29T05:38:09.003Z,2.20
2019-01-29T05:40:43.822Z,1.90
2019-01-29T05:43:18.692Z,2.90
2019-01-29T05:45:54.483Z,2.00
2019-01-29T05:48:29.299Z,1.90
2019-01-29T05:51:04.391Z,2.50
2019-01-29T05:53:39.201Z,2.20
2019-01-29T05:56:14.847Z,1.90
2019-01-29T05:58:49.752Z,1.77
2019-01-29T06:01:24.512Z,1.90
2019-01-29T06:04:12.776Z,2.07
2019-01-29T06:06:48.459Z,2.00
2019-01-29T06:09:23.273Z,2.30
2019-01-29T06:11:57.986Z,2.60
2019-01-29T06:14:32.927Z,2.60
2019-01-29T06:17:07.757Z,2.33
2019-01-29T06:19:43.064Z,2.67
2019-01-29T06:22:18.228Z,2.83
2019-01-29T06:24:53.224Z,2.67
2019-01-29T06:27:27.925Z,2.20
2019-01-29T06:30:06.203Z,2.37
2019-01-29T06:32:40.999Z,2.20
2019-01-29T06:35:17.695Z,2.33
2019-01-29T06:37:52.579Z,2.53
2019-01-29T06:40:28.815Z,2.27
2019-01-29T06:43:03.719Z,2.60
2019-01-29T06:45:38.701Z,2.40
2019-01-29T06:48:13.473Z,2.00
2019-01-29T06:50:48.324Z,2.60
2019-01-29T06:53:23.413Z,2.10
2019-01-29T06:55:58.251Z,2.33
2019-01-29T06:58:33.363Z,2.30
2019-01-29T07:01:08.345Z,2.30
2019-01-29T07:03:43.141Z,2.23
2019-01-29T07:06:17.961Z,2.40
2019-01-29T07:08:53.151Z,2.60
2019-01-29T07:11:27.905Z,2.83
2019-01-29T07:14:02.819Z,2.70
2019-01-29T07:16:54.231Z,3.07
2019-01-29T07:19:37.748Z,2.90
2019-01-29T07:22:12.579Z,2.70
2019-01-29T07:24:47.394Z,4.20
2019-01-29T07:27:22.228Z,10.10
2019-01-29T07:29:57.072Z,10.10
2019-01-29T07:32:31.916Z,9.97
2019-01-29T07:35:07.546Z,15.30
2019-01-29T07:37:43.395Z,17.07
2019-01-29T07:40:18.394Z,21.20
2019-01-29T07:42:53.419Z,13.20
2019-01-29T07:45:29.273Z,19.53
2019-01-29T07:48:04.298Z,7.30
2019-01-29T07:50:40.135Z,5.80
2019-01-29T07:53:14.991Z,5.80
2019-01-29T07:55:49.983Z,5.07
2019-01-29T07:58:24.889Z,4.50
2019-01-29T08:00:59.883Z,4.00
2019-01-29T08:03:38.323Z,3.80
2019-01-29T08:06:12.663Z,3.90
2019-01-29T08:08:47.735Z,4.90
2019-01-29T08:11:22.770Z,3.13
2019-01-29T08:13:57.649Z,3.27
2019-01-29T08:16:32.606Z,3.13
2019-01-29T08:19:09.757Z,4.40
2019-01-29T08:21:44.527Z,4.10
2019-01-29T08:24:19.581Z,4.30
2019-01-29T08:26:55.598Z,4.40
2019-01-29T08:29:30.803Z,3.73
2019-01-29T08:32:06.119Z,4.17
2019-01-29T08:34:42.465Z,3.43
2019-01-29T08:37:17.381Z,3.67
2019-01-29T08:39:52.286Z,3.73
2019-01-29T08:42:28.495Z,25.57
2019-01-29T08:45:04.387Z,9.03
2019-01-29T08:47:39.447Z,8.90
2019-01-29T08:50:19.987Z,4.93
2019-01-29T08:52:55.033Z,4.40
2019-01-29T08:55:30.041Z,3.47
2019-01-29T08:58:05.831Z,3.40
2019-01-29T09:00:40.856Z,3.10
2019-01-29T09:03:15.856Z,3.00
2019-01-29T09:05:50.863Z,3.57
2019-01-29T09:08:25.877Z,4.80
2019-01-29T09:11:00.787Z,4.30
2019-01-29T09:13:35.820Z,3.47
2019-01-29T09:16:10.689Z,3.20
2019-01-29T09:18:45.635Z,2.93
2019-01-29T09:21:20.478Z,2.83
2019-01-29T09:23:55.271Z,3.53
2019-01-29T09:26:30.279Z,3.57
2019-01-29T09:29:05.102Z,3.20
2019-01-29T09:31:39.945Z,2.70
2019-01-29T09:34:17.242Z,3.07
2019-01-29T09:36:53.087Z,2.83
2019-01-29T09:39:28.810Z,3.67
2019-01-29T09:42:04.584Z,3.80
2019-01-29T09:44:39.409Z,3.13
2019-01-29T09:47:14.467Z,5.57
2019-01-29T09:49:49.327Z,23.13
2019-01-29T09:52:24.255Z,8.47
2019-01-29T09:54:59.065Z,9.90
2019-01-29T09:57:33.905Z,9.00
2019-01-29T10:00:16.355Z,6.23
2019-01-29T10:02:51.746Z,12.23
2019-01-29T10:05:27.175Z,27.20
2019-01-29T10:08:02.025Z,21.03
2019-01-29T10:10:36.879Z,10.60
2019-01-29T10:13:13.183Z,8.80
2019-01-29T10:15:48.015Z,9.40
2019-01-29T10:18:22.857Z,5.47
2019-01-29T10:20:57.652Z,8.43
2019-01-29T10:23:32.575Z,9.20
2019-01-29T10:26:07.384Z,20.77
2019-01-29T10:28:43.413Z,5.60
2019-01-29T10:31:18.211Z,5.40
2019-01-29T10:33:53.049Z,4.73
2019-01-29T10:36:27.770Z,6.10
2019-01-29T10:39:05.109Z,5.13
2019-01-29T10:41:40.045Z,5.40
2019-01-29T10:44:14.808Z,4.63
2019-01-29T10:46:50.655Z,5.37
2019-01-29T10:49:25.492Z,5.27
2019-01-29T10:52:00.337Z,4.83
2019-01-29T10:54:35.271Z,6.30
2019-01-29T10:57:10.268Z,6.60
2019-01-29T10:59:45.034Z,6.37
2019-01-29T11:02:19.867Z,5.57
2019-01-29T11:04:54.781Z,6.37
2019-01-29T11:07:29.620Z,5.67
2019-01-29T11:10:04.812Z,5.60
2019-01-29T11:12:39.894Z,5.20
2019-01-29T11:15:23.311Z,5.80
2019-01-29T11:17:58.259Z,5.83
2019-01-29T11:20:33.341Z,6.13
2019-01-29T11:23:11.302Z,5.07
2019-01-29T11:25:46.146Z,6.17
2019-01-29T11:28:20.971Z,14.17
2019-01-29T11:30:55.827Z,24.97
2019-01-29T11:33:30.675Z,11.23
2019-01-29T11:36:05.622Z,9.83
2019-01-29T11:38:40.482Z,7.33
2019-01-29T11:41:15.256Z,7.40
2019-01-29T11:43:50.125Z,7.80
2019-01-29T11:46:25.121Z,6.00
2019-01-29T11:49:00.154Z,5.43
2019-01-29T11:51:35.111Z,5.90
2019-01-29T11:54:10.098Z,5.70
2019-01-29T11:56:44.946Z,6.80
2019-01-29T11:59:19.913Z,6.07
2019-01-29T12:01:54.783Z,6.23
2019-01-29T12:04:29.923Z,5.40
2019-01-29T12:07:04.806Z,5.83
2019-01-29T12:09:39.637Z,5.73
2019-01-29T12:12:14.569Z,5.10
2019-01-29T12:14:49.489Z,5.33
2019-01-29T12:17:25.419Z,5.87
2019-01-29T12:20:00.363Z,5.30
2019-01-29T12:22:35.359Z,5.17
2019-01-29T12:25:11.620Z,5.40
2019-01-29T12:27:46.546Z,5.70
2019-01-29T12:30:22.029Z,5.90
2019-01-29T12:32:57.221Z,5.40
2019-01-29T12:35:32.044Z,5.30
2019-01-29T12:38:09.601Z,5.23
2019-01-29T12:40:46.659Z,5.30
2019-01-29T12:43:21.500Z,5.90
2019-01-29T12:45:56.301Z,6.33
2019-01-29T12:48:33.571Z,5.67
2019-01-29T12:51:20.420Z,6.13
2019-01-29T12:53:57.689Z,5.53
2019-01-29T12:56:36.099Z,4.80
2019-01-29T12:59:12.230Z,5.33
2019-01-29T13:01:47.554Z,5.97
2019-01-29T13:04:22.510Z,5.67
2019-01-29T13:06:57.435Z,5.87
2019-01-29T13:09:32.382Z,19.90
2019-01-29T13:12:07.563Z,38.80
2019-01-29T13:14:42.573Z,8.80
2019-01-29T13:17:17.290Z,7.60
2019-01-29T13:19:52.130Z,6.10
2019-01-29T13:22:26.948Z,6.43
2019-01-29T13:25:01.780Z,7.90
2019-01-29T13:27:36.674Z,7.87
2019-01-29T13:30:23.624Z,13.60
2019-01-29T13:32:58.500Z,11.40
2019-01-29T13:35:35.320Z,9.37
2019-01-29T13:38:11.014Z,6.83
2019-01-29T13:40:45.850Z,6.90
2019-01-29T13:43:20.654Z,8.53
2019-01-29T13:45:56.684Z,7.67
2019-01-29T13:48:33.334Z,7.67
2019-01-29T13:51:08.279Z,7.83
2019-01-29T13:53:43.085Z,8.00
2019-01-29T13:56:17.949Z,5.63
2019-01-29T13:58:52.796Z,6.63
2019-01-29T14:01:27.646Z,7.00
2019-01-29T14:04:06.232Z,7.10
2019-01-29T14:06:39.078Z,6.20
2019-01-29T14:09:14.224Z,7.93
2019-01-29T14:11:50.626Z,6.70
2019-01-29T14:14:26.346Z,6.30
2019-01-29T14:17:01.222Z,6.40
2019-01-29T14:19:36.025Z,7.17
2019-01-29T14:22:10.868Z,6.77
2019-01-29T14:24:45.661Z,8.10
2019-01-29T14:27:20.534Z,7.00
2019-01-29T14:29:55.430Z,8.33
2019-01-29T14:32:30.256Z,7.63
2019-01-29T14:35:05.525Z,7.57
2019-01-29T14:38:41.928Z,6.10
2019-01-29T14:41:19.768Z,7.00
2019-01-29T14:43:58.130Z,7.20
2019-01-29T14:46:33.810Z,6.60
2019-01-29T14:49:09.532Z,6.90
2019-01-29T14:51:44.354Z,8.43
2019-01-29T14:54:20.127Z,6.30
2019-01-29T14:56:57.157Z,7.60
2019-01-29T14:59:32.106Z,8.13
2019-01-29T15:02:06.827Z,7.33
2019-01-29T15:04:41.759Z,7.03
2019-01-29T15:07:16.658Z,7.70
2019-01-29T15:09:56.217Z,7.70
2019-01-29T15:12:31.250Z,7.67
2019-01-29T15:15:08.598Z,9.47
2019-01-29T15:17:56.154Z,8.57
2019-01-29T15:20:31.111Z,8.10
2019-01-29T15:23:06.061Z,10.63
2019-01-29T15:25:40.936Z,8.83
2019-01-29T15:28:15.750Z,8.90
2019-01-29T15:30:52.866Z,10.83
2019-01-29T15:33:27.548Z,20.80
2019-01-29T15:36:02.413Z,7.97
2019-01-29T15:38:37.200Z,9.47
2019-01-29T15:41:12.088Z,10.80
2019-01-29T15:43:46.894Z,11.87
2019-01-29T15:46:21.758Z,9.70
2019-01-29T15:48:56.578Z,9.70
2019-01-29T15:51:31.464Z,11.10
2019-01-29T15:54:06.981Z,10.67
2019-01-29T15:56:41.838Z,11.17
2019-01-29T15:59:16.586Z,10.63
2019-01-29T16:01:51.525Z,11.33
2019-01-29T16:04:26.347Z,10.33
2019-01-29T16:07:01.184Z,10.53
2019-01-29T16:09:36.198Z,12.30
2019-01-29T16:12:12.197Z,13.00
2019-01-29T16:14:47.060Z,12.80
2019-01-29T16:17:21.939Z,12.93
2019-01-29T16:19:56.774Z,12.43
2019-01-29T16:22:34.153Z,12.40
2019-01-29T16:25:11.229Z,12.50
2019-01-29T16:27:46.087Z,13.00
2019-01-29T16:30:24.592Z,12.67
2019-01-29T16:32:59.466Z,12.20
2019-01-29T16:35:34.409Z,12.00
2019-01-29T16:38:09.645Z,11.87
2019-01-29T16:40:46.297Z,12.93
2019-01-29T16:43:21.248Z,13.47
2019-01-29T16:45:56.074Z,14.50
2019-01-29T16:48:30.975Z,15.20
2019-01-29T16:51:06.082Z,15.50
2019-01-29T16:53:46.263Z,15.50
2019-01-29T16:56:21.210Z,15.60
2019-01-29T16:58:56.122Z,13.70
2019-01-29T17:01:34.213Z,15.70
2019-01-29T17:04:10.694Z,15.13
2019-01-29T17:06:45.658Z,15.20
2019-01-29T17:09:20.622Z,14.60
2019-01-29T17:11:55.566Z,13.30
2019-01-29T17:14:30.468Z,14.60
2019-01-29T17:17:05.326Z,13.90
2019-01-29T17:19:40.180Z,13.67
2019-01-29T17:22:14.988Z,17.12
2019-01-29T17:24:49.867Z,13.60
2019-01-29T17:27:24.615Z,13.37
2019-01-29T17:29:59.506Z,12.03
2019-01-29T17:32:36.240Z,13.37
2019-01-29T17:35:11.238Z,14.70
2019-01-29T17:37:46.039Z,16.23
2019-01-29T17:40:21.385Z,14.77
2019-01-29T17:42:56.420Z,14.77
2019-01-29T17:45:34.661Z,13.87
2019-01-29T17:48:09.578Z,14.70
2019-01-29T17:50:45.515Z,14.53
2019-01-29T17:53:20.590Z,15.60
2019-01-29T17:55:55.493Z,15.50
2019-01-29T17:58:30.283Z,13.87
2019-01-29T18:01:05.492Z,15.67
2019-01-29T18:03:40.426Z,14.30
2019-01-29T18:06:15.211Z,15.07
2019-01-29T18:08:50.584Z,17.00
2019-01-29T18:11:25.350Z,15.43
2019-01-29T18:14:01.774Z,15.13
2019-01-29T18:16:36.768Z,16.90
2019-01-29T18:19:12.340Z,16.73
2019-01-29T18:21:56.727Z,16.10
2019-01-29T18:24:25.456Z,18.03
2019-01-29T18:27:03.345Z,17.53
2019-01-29T18:29:38.179Z,16.93
2019-01-29T18:32:13.378Z,16.83
2019-01-29T18:34:48.372Z,18.20
2019-01-29T18:37:23.297Z,19.10
2019-01-29T18:39:58.117Z,21.20
2019-01-29T18:42:35.765Z,22.03
2019-01-29T18:45:12.666Z,24.37
2019-01-29T18:47:47.812Z,24.37
2019-01-29T18:50:22.915Z,21.43
2019-01-29T18:52:57.933Z,20.67
2019-01-29T18:55:32.767Z,18.70
2019-01-29T18:58:11.917Z,19.23
2019-01-29T19:00:54.043Z,18.70
2019-01-29T19:03:20.980Z,19.70
2019-01-29T19:05:55.960Z,19.70
2019-01-29T19:08:30.871Z,20.03
2019-01-29T19:11:07.758Z,18.73
2019-01-29T19:13:42.575Z,18.70
2019-01-29T19:16:17.574Z,20.50
2019-01-29T19:18:52.562Z,19.17
2019-01-29T19:21:27.298Z,19.77
2019-01-29T19:24:02.161Z,19.73
2019-01-29T19:26:37.019Z,21.30
2019-01-29T19:29:11.982Z,21.33
2019-01-29T19:31:46.710Z,20.30
2019-01-29T19:34:21.785Z,20.60
2019-01-29T19:36:56.612Z,21.80
2019-01-29T19:39:31.561Z,20.83
2019-01-29T19:42:06.550Z,21.70
2019-01-29T19:44:41.401Z,20.80
2019-01-29T19:47:16.318Z,23.93
2019-01-29T19:49:51.402Z,21.77
2019-01-29T19:52:26.946Z,20.93
2019-01-29T19:55:01.922Z,20.57
2019-01-29T19:57:37.773Z,20.90
2019-01-29T20:00:26.411Z,20.97
2019-01-29T20:03:01.294Z,21.23
2019-01-29T20:05:36.232Z,19.47
2019-01-29T20:08:11.205Z,20.83
2019-01-29T20:10:46.025Z,21.67
2019-01-29T20:13:20.893Z,22.10
2019-01-29T20:15:55.797Z,22.27
2019-01-29T20:18:30.641Z,26.60
2019-01-29T20:21:05.542Z,27.13
2019-01-29T20:23:41.382Z,23.43
2019-01-29T20:26:17.308Z,23.70
2019-01-29T20:28:52.416Z,22.03
2019-01-29T20:31:27.326Z,21.03
2019-01-29T20:34:04.684Z,21.03
2019-01-29T20:36:40.441Z,20.20
2019-01-29T20:39:15.274Z,21.87
2019-01-29T20:41:51.882Z,21.37
2019-01-29T20:44:26.801Z,17.93
2019-01-29T20:47:01.829Z,19.20
2019-01-29T20:49:36.726Z,20.07
2019-01-29T20:52:11.693Z,18.57
2019-01-29T20:54:46.625Z,17.30
2019-01-29T20:57:21.507Z,18.80
2019-01-29T20:59:56.360Z,19.50
2019-01-29T21:02:31.217Z,20.27
2019-01-29T21:05:09.527Z,17.73
2019-01-29T21:07:44.723Z,17.60
2019-01-29T21:10:21.400Z,18.97
2019-01-29T21:12:56.219Z,17.80
2019-01-29T21:15:38.142Z,16.40
2019-01-29T21:18:07.701Z,15.40
2019-01-29T21:20:42.549Z,15.80
2019-01-29T21:23:17.421Z,15.70
2019-01-29T21:25:52.244Z,15.40
2019-01-29T21:28:27.107Z,17.50
2019-01-29T21:31:01.933Z,15.33
2019-01-29T21:33:36.729Z,15.07
2019-01-29T21:36:11.629Z,15.53
2019-01-29T21:38:46.561Z,15.07
2019-01-29T21:41:21.521Z,14.60
2019-01-29T21:43:56.419Z,14.00
2019-01-29T21:46:31.267Z,15.07
2019-01-29T21:49:06.195Z,14.50
2019-01-29T21:51:41.019Z,13.57
2019-01-29T21:54:15.890Z,14.13
2019-01-29T21:56:50.739Z,13.17
2019-01-29T21:59:26.473Z,12.23
2019-01-29T22:02:01.329Z,11.70
2019-01-29T22:04:36.204Z,12.00
2019-01-29T22:07:13.972Z,11.00
2019-01-29T22:09:48.879Z,12.97
2019-01-29T22:12:23.697Z,12.37
2019-01-29T22:14:58.543Z,12.80
2019-01-29T22:17:33.644Z,13.03
2019-01-29T22:20:11.827Z,11.83
2019-01-29T22:22:46.621Z,13.30
2019-01-29T22:25:21.583Z,12.23
2019-01-29T22:27:57.280Z,12.70
2019-01-29T22:30:34.990Z,11.90
2019-01-29T22:33:10.087Z,12.93
2019-01-29T22:35:46.815Z,13.43
2019-01-29T22:38:21.633Z,12.50
2019-01-29T22:40:56.549Z,13.30
2019-01-29T22:43:31.353Z,12.50
2019-01-29T22:46:06.227Z,11.40
2019-01-29T22:48:41.025Z,12.47
2019-01-29T22:51:15.863Z,12.60
2019-01-29T22:53:50.678Z,11.33
2019-01-29T22:56:25.539Z,11.80
2019-01-29T22:59:00.239Z,10.70
2019-01-29T23:01:43.724Z,11.27
2019-01-29T23:04:31.093Z,10.17
2019-01-29T23:07:20.081Z,12.67
2019-01-29T23:09:54.797Z,12.10
2019-01-29T23:12:29.582Z,10.80
2019-01-29T23:15:07.615Z,10.47
2019-01-29T23:17:43.513Z,11.93
2019-01-29T23:20:19.050Z,12.40
2019-01-29T23:22:54.018Z,12.67
2019-01-29T23:25:28.907Z,11.30
2019-01-29T23:28:03.858Z,11.00
2019-01-29T23:30:39.751Z,12.10
2019-01-29T23:33:14.567Z,11.60
2019-01-29T23:35:49.349Z,11.37
2019-01-29T23:38:24.223Z,11.73
2019-01-29T23:40:58.926Z,10.27
2019-01-29T23:43:33.777Z,11.20
2019-01-29T23:46:08.473Z,11.40
2019-01-29T23:48:43.382Z,11.27
2019-01-29T23:51:18.207Z,10.40
2019-01-29T23:53:53.051Z,12.03
2019-01-29T23:56:27.851Z,11.07
2019-01-29T23:59:03.611Z,11.00
